createdAt,value
2023-03-01T00:01:12.683Z,-3.8
2023-03-01T00:06:12.615Z,-3.8
2023-03-01T00:11:12.940Z,-3.9
2023-03-01T00:16:12.760Z,-3.9
2023-03-01T00:21:12.584Z,-3.9
2023-03-01T00:26:13.279Z,-3.9
2023-03-01T00:31:13.394Z,-4.1
2023-03-01T00:36:13.365Z,-4.1
2023-03-01T00:41:13.312Z,-4.2
2023-03-01T00:46:13.580Z,-4.3
2023-03-01T00:51:13.217Z,-4.4
2023-03-01T00:56:13.317Z,-4.5
2023-03-01T01:01:12.873Z,-4.6
2023-03-01T01:06:13.162Z,-4.7
2023-03-01T01:11:13.286Z,-4.7
2023-03-01T01:16:13.393Z,-4.7
2023-03-01T01:21:13.204Z,-4.7
2023-03-01T01:26:13.136Z,-4.8
2023-03-01T01:31:13.297Z,-4.8
2023-03-01T01:36:13.240Z,-4.9
2023-03-01T01:41:13.215Z,-5.0
2023-03-01T01:46:13.753Z,-5.0
2023-03-01T01:51:13.321Z,-5.1
2023-03-01T01:56:13.227Z,-5.2
2023-03-01T02:01:13.099Z,-5.2
2023-03-01T02:06:13.186Z,-5.2
2023-03-01T02:11:13.112Z,-5.3
2023-03-01T02:16:12.456Z,-5.4
2023-03-01T02:21:13.146Z,-5.3
2023-03-01T02:26:13.200Z,-5.3
2023-03-01T02:31:13.033Z,-5.3
2023-03-01T02:36:13.154Z,-5.3
2023-03-01T02:41:13.063Z,-5.4
2023-03-01T02:46:13.166Z,-5.4
2023-03-01T02:51:13.005Z,-5.4
2023-03-01T02:56:12.274Z,-5.4
2023-03-01T03:01:13.103Z,-5.4
2023-03-01T03:06:13.103Z,-5.4
2023-03-01T03:11:12.997Z,-5.5
2023-03-01T03:16:13.109Z,-5.6
2023-03-01T03:21:13.048Z,-5.6
2023-03-01T03:26:13.234Z,-5.6
2023-03-01T03:31:13.012Z,-5.7
2023-03-01T03:36:12.208Z,-5.7
2023-03-01T03:41:12.868Z,-5.7
2023-03-01T03:46:12.436Z,-5.6
2023-03-01T03:51:12.181Z,-5.6
2023-03-01T03:56:12.922Z,-5.5
2023-03-01T04:01:12.926Z,-5.5
2023-03-01T04:06:12.867Z,-5.6
2023-03-01T04:11:12.820Z,-5.6
2023-03-01T04:16:12.925Z,-5.6
2023-03-01T04:21:13.068Z,-5.7
2023-03-01T04:26:12.867Z,-5.8
2023-03-01T04:31:12.907Z,-5.8
2023-03-01T04:36:12.863Z,-5.9
2023-03-01T04:41:12.823Z,-5.9
2023-03-01T04:46:15.287Z,-5.9
2023-03-01T04:51:12.773Z,-6.0
2023-03-01T04:56:12.828Z,-6.1
2023-03-01T05:01:12.823Z,-6.1
2023-03-01T05:06:12.838Z,-6.2
2023-03-01T05:11:12.728Z,-6.3
2023-03-01T05:16:12.663Z,-6.3
2023-03-01T05:21:12.025Z,-6.3
2023-03-01T05:26:27.478Z,-6.3
2023-03-01T05:31:12.197Z,-6.3
2023-03-01T05:36:11.975Z,-6.3
2023-03-01T05:41:12.059Z,-6.3
2023-03-01T05:46:12.250Z,-6.3
2023-03-01T05:51:11.954Z,-6.2
2023-03-01T05:56:12.021Z,-5.9
2023-03-01T06:01:12.721Z,-5.7
2023-03-01T06:06:12.767Z,-5.6
2023-03-01T06:11:12.660Z,-5.5
2023-03-01T06:16:12.827Z,-5.4
2023-03-01T06:21:12.685Z,-5.3
2023-03-01T06:26:12.790Z,-5.2
2023-03-01T06:31:13.975Z,-5.0
2023-03-01T06:36:11.892Z,-4.8
2023-03-01T06:41:12.545Z,-4.6
2023-03-01T06:46:11.858Z,-4.4
2023-03-01T06:51:12.592Z,-4.3
2023-03-01T06:56:12.568Z,-4.1
2023-03-01T07:01:11.908Z,-3.9
2023-03-01T07:06:11.847Z,-3.6
2023-03-01T07:11:11.800Z,-3.4
2023-03-01T07:16:12.641Z,-3.1
2023-03-01T07:21:12.542Z,-2.9
2023-03-01T07:26:12.524Z,-2.6
2023-03-01T07:36:12.512Z,-2.1
2023-03-01T07:41:11.785Z,-1.9
2023-03-01T07:46:11.821Z,-1.5
2023-03-01T07:51:11.886Z,-1.2
2023-03-01T07:56:11.756Z,-0.9
2023-03-01T08:01:11.701Z,-0.7
2023-03-01T08:06:11.853Z,-0.5
2023-03-01T08:11:11.675Z,-0.3
2023-03-01T08:16:11.796Z,-0.1
2023-03-01T08:21:11.939Z,0.1
2023-03-01T08:26:11.674Z,0.2
2023-03-01T08:31:11.722Z,0.4
2023-03-01T08:36:11.762Z,0.5
2023-03-01T08:41:11.699Z,0.6
2023-03-01T08:46:11.770Z,0.8
2023-03-01T08:51:11.777Z,0.9
2023-03-01T08:56:11.647Z,1.0
2023-03-01T09:01:11.593Z,1.2
2023-03-01T09:06:11.831Z,1.3
2023-03-01T09:11:11.618Z,1.3
2023-03-01T09:16:11.624Z,1.4
2023-03-01T09:21:11.839Z,1.5
2023-03-01T09:26:11.691Z,1.7
2023-03-01T09:31:12.094Z,1.8
2023-03-01T09:36:11.524Z,1.9
2023-03-01T09:41:11.797Z,2.0
2023-03-01T09:46:11.688Z,2.1
2023-03-01T09:51:11.637Z,2.2
2023-03-01T09:56:11.650Z,2.4
2023-03-01T10:01:11.724Z,2.6
2023-03-01T10:06:16.625Z,2.8
2023-03-01T10:11:12.067Z,3.0
2023-03-01T10:16:11.481Z,3.2
2023-03-01T10:21:11.785Z,3.4
2023-03-01T10:26:11.612Z,3.5
2023-03-01T10:31:11.630Z,3.6
2023-03-01T10:36:11.465Z,3.7
2023-03-01T10:41:11.682Z,3.8
2023-03-01T10:46:11.514Z,3.9
2023-03-01T10:51:11.413Z,3.9
2023-03-01T10:56:11.491Z,4.0
2023-03-01T11:01:11.465Z,4.2
2023-03-01T11:06:11.578Z,4.2
2023-03-01T11:11:11.451Z,4.3
2023-03-01T11:16:11.455Z,4.5
2023-03-01T11:21:11.517Z,4.7
2023-03-01T11:26:12.970Z,4.7
2023-03-01T11:31:11.442Z,4.7
2023-03-01T11:36:11.364Z,4.8
2023-03-01T11:41:11.311Z,5.0
2023-03-01T11:46:12.895Z,5.0
2023-03-01T11:51:11.516Z,5.0
2023-03-01T11:56:11.468Z,5.1
2023-03-01T12:01:11.597Z,5.3
2023-03-01T12:06:11.611Z,5.3
2023-03-01T12:11:11.323Z,5.5
2023-03-01T12:16:11.374Z,5.5
2023-03-01T12:21:11.310Z,5.5
2023-03-01T12:26:12.628Z,5.4
2023-03-01T12:31:11.486Z,5.3
2023-03-01T12:36:11.302Z,5.3
2023-03-01T12:41:11.230Z,5.2
2023-03-01T12:46:11.551Z,5.3
2023-03-01T12:51:11.310Z,5.4
2023-03-01T12:56:11.260Z,5.5
2023-03-01T13:01:11.373Z,5.5
2023-03-01T13:06:11.216Z,5.5
2023-03-01T13:11:11.206Z,5.6
2023-03-01T13:16:11.608Z,5.6
2023-03-01T13:21:11.347Z,5.6
2023-03-01T13:26:11.369Z,5.7
2023-03-01T13:31:11.194Z,5.8
2023-03-01T13:36:11.168Z,5.8
2023-03-01T13:41:11.285Z,5.8
2023-03-01T13:46:11.619Z,5.8
2023-03-01T13:51:11.145Z,5.9
2023-03-01T13:56:11.243Z,6.0
2023-03-01T14:01:11.530Z,6.0
2023-03-01T14:06:15.420Z,6.1
2023-03-01T14:11:11.394Z,6.1
2023-03-01T14:16:11.501Z,6.0
2023-03-01T14:21:11.217Z,6.0
2023-03-01T14:26:11.134Z,6.0
2023-03-01T14:31:11.431Z,5.9
2023-03-01T14:36:11.161Z,5.9
2023-03-01T14:41:11.024Z,5.8
2023-03-01T14:46:11.327Z,5.8
2023-03-01T14:51:11.112Z,5.7
2023-03-01T14:56:10.990Z,5.6
2023-03-01T15:01:11.194Z,5.7
2023-03-01T15:06:11.031Z,5.6
2023-03-01T15:11:11.090Z,5.5
2023-03-01T15:16:11.435Z,5.4
2023-03-01T15:21:11.047Z,5.3
2023-03-01T15:26:11.098Z,5.1
2023-03-01T15:31:11.165Z,5.0
2023-03-01T15:36:10.953Z,4.9
2023-03-01T15:41:11.344Z,4.7
2023-03-01T15:46:11.188Z,4.6
2023-03-01T15:51:11.069Z,4.4
2023-03-01T15:56:10.918Z,4.3
2023-03-01T16:01:11.184Z,4.1
2023-03-01T16:06:13.138Z,3.9
2023-03-01T16:11:10.903Z,3.7
2023-03-01T16:16:10.941Z,3.5
2023-03-01T16:21:10.884Z,3.3
2023-03-01T16:26:10.867Z,3.0
2023-03-01T16:31:11.048Z,2.8
2023-03-01T16:36:10.946Z,2.6
2023-03-01T16:41:10.806Z,2.4
2023-03-01T16:46:11.154Z,2.2
2023-03-01T16:51:10.840Z,2.1
2023-03-01T16:56:10.840Z,2.0
2023-03-01T17:01:11.024Z,1.8
2023-03-01T17:06:10.825Z,1.6
2023-03-01T17:11:10.801Z,1.4
2023-03-01T17:16:11.102Z,1.1
2023-03-01T17:21:10.743Z,0.9
2023-03-01T17:26:10.751Z,0.6
2023-03-01T17:31:10.910Z,0.5
2023-03-01T17:36:10.842Z,0.3
2023-03-01T17:41:10.813Z,0.2
2023-03-01T17:46:10.968Z,0.1
2023-03-01T17:51:10.739Z,0.0
2023-03-01T17:56:10.965Z,-0.0
2023-03-01T18:01:10.988Z,-0.0
2023-03-01T18:06:10.771Z,-0.0
2023-03-01T18:11:10.669Z,-0.0
2023-03-01T18:16:12.172Z,-0.0
2023-03-01T18:21:10.933Z,-0.1
2023-03-01T18:26:11.115Z,-0.1
2023-03-01T18:31:11.064Z,-0.2
2023-03-01T18:36:12.841Z,-0.3
2023-03-01T18:41:10.680Z,-0.4
2023-03-01T18:46:11.504Z,-0.5
2023-03-01T18:51:11.977Z,-0.6
2023-03-01T18:56:10.747Z,-0.7
2023-03-01T19:01:10.722Z,-0.8
2023-03-01T19:06:11.709Z,-0.9
2023-03-01T19:11:11.685Z,-1.0
2023-03-01T19:16:13.455Z,-1.2
2023-03-01T19:21:11.244Z,-1.4
2023-03-01T19:26:11.403Z,-1.5
2023-03-01T19:31:11.672Z,-1.6
2023-03-01T19:36:10.803Z,-1.8
2023-03-01T19:41:10.515Z,-1.9
2023-03-01T19:46:10.757Z,-1.9
2023-03-01T19:51:10.463Z,-2.1
2023-03-01T19:56:14.603Z,-2.0
2023-03-01T20:01:10.717Z,-2.0
2023-03-01T20:06:10.409Z,-1.9
2023-03-01T20:11:10.440Z,-1.9
2023-03-01T20:16:10.570Z,-1.8
2023-03-01T20:21:22.870Z,-1.8
2023-03-01T20:26:10.433Z,-1.8
2023-03-01T20:31:11.224Z,-1.8
2023-03-01T20:36:11.059Z,-1.8
2023-03-01T20:41:11.174Z,-2.0
2023-03-01T20:46:11.098Z,-2.1
2023-03-01T20:51:12.486Z,-2.2
2023-03-01T20:56:11.038Z,-2.4
2023-03-01T21:01:11.211Z,-2.5
2023-03-01T21:06:11.131Z,-2.6
2023-03-01T21:11:11.373Z,-2.8
2023-03-01T21:16:11.131Z,-3.0
2023-03-01T21:21:10.393Z,-3.0
2023-03-01T21:26:10.395Z,-3.1
2023-03-01T21:31:10.349Z,-3.1
2023-03-01T21:36:10.482Z,-3.1
2023-03-01T21:41:10.318Z,-2.9
2023-03-01T21:46:10.364Z,-2.8
2023-03-01T21:51:10.371Z,-2.8
2023-03-01T21:56:10.249Z,-2.7
2023-03-01T22:01:10.280Z,-2.7
2023-03-01T22:06:10.371Z,-2.7
2023-03-01T22:11:10.225Z,-2.8
2023-03-01T22:16:10.292Z,-2.7
2023-03-01T22:21:10.345Z,-2.7
2023-03-01T22:26:10.224Z,-2.7
2023-03-01T22:31:10.180Z,-2.7
2023-03-01T22:36:10.332Z,-2.7
2023-03-01T22:41:10.335Z,-2.7
2023-03-01T22:46:10.271Z,-2.7
2023-03-01T22:51:10.553Z,-2.7
2023-03-01T22:56:10.099Z,-2.6
2023-03-01T23:01:10.133Z,-2.6
2023-03-01T23:06:10.851Z,-2.6
2023-03-01T23:11:11.024Z,-2.6
2023-03-01T23:16:10.791Z,-2.7
2023-03-01T23:21:10.809Z,-2.9
2023-03-01T23:26:10.846Z,-3.0
2023-03-01T23:31:10.939Z,-3.2
2023-03-01T23:36:10.866Z,-3.3
2023-03-01T23:41:10.737Z,-3.4
2023-03-01T23:46:10.768Z,-3.5
2023-03-01T23:51:10.672Z,-3.6
2023-03-01T23:56:10.700Z,-3.7
